Wednesday, October 18, 2017, 3:40 AM EDT
Back to Local

KPHL, Philadelphia International Airpt

Location: Philadelphia, PA, United States Lat: 39.867
Local Time: 3:40 AM EDT ( 7:40 GMT) Lon: -75.233
Time Zone: US/Eastern Elev: 19 ft

Show me the last for .
Show Decoded

2017-10-18 02:54 METAR KPHL 180654Z 25003KT 10SM CLR 09/03 A3032 RMK AO2 SLP268 T00940028 =
2017-10-18 01:54 METAR KPHL 180554Z 27003KT 10SM CLR 10/04 A3033 RMK AO2 SLP270 T01000044 10128
                 20094 53002 =
2017-10-18 00:54 METAR KPHL 180454Z 25004KT 10SM CLR 10/06 A3032 RMK AO2 SLP268 T01000061
                 401610056 =
2017-10-17 23:54 METAR KPHL 180354Z 24008KT 10SM CLR 11/05 A3032 RMK AO2 SLP268 T01110050 =
2017-10-17 22:54 METAR KPHL 180254Z 22006KT 10SM CLR 11/05 A3032 RMK AO2 SLP268 T01110050 51006 =
2017-10-17 21:54 METAR KPHL 180154Z 21006KT 10SM CLR 12/04 A3032 RMK AO2 SLP267 T01170044 =
2017-10-17 20:54 METAR KPHL 180054Z 20006KT 10SM CLR 12/03 A3031 RMK AO2 SLP264 T01220033 =
2017-10-17 19:54 METAR KPHL 172354Z 20006KT 10SM CLR 13/03 A3030 RMK AO2 SLP261 T01330028 10161
                 20133 53008 =
2017-10-17 18:54 METAR KPHL 172254Z 20007KT 10SM CLR 14/02 A3029 RMK AO2 SLP255 T01440022 =
2017-10-17 17:54 METAR KPHL 172154Z 22007KT 10SM CLR 16/00 A3028 RMK AO2 SLP253 T01560000 =
2017-10-17 16:54 METAR KPHL 172054Z 21006KT 10SM CLR 16/M01 A3028 RMK AO2 SLP253 T01611006 56010
                 =
2017-10-17 15:54 METAR KPHL 171954Z 19006KT 10SM CLR 16/00 A3029 RMK AO2 SLP255 T01560000 =
2017-10-17 14:54 METAR KPHL 171854Z COR 34005KT 10SM CLR 16/00 A3030 RMK AO2 SLP259 T01560000 =
2017-10-17 13:54 METAR KPHL 171754Z 31006KT 10SM CLR 14/M01 A3031 RMK AO2 SLP263 T01441006 10144
                 20061 58021 =
2017-10-17 12:54 METAR KPHL 171654Z 00000KT 10SM CLR 13/M01 A3033 RMK AO2 SLP271 T01281006 =
2017-10-17 11:54 METAR KPHL 171554Z VRB04KT 10SM CLR 12/00 A3036 RMK AO2 SLP279 T01220000 =
2017-10-17 10:54 METAR KPHL 171454Z 34007KT 10SM CLR 11/00 A3037 RMK AO2 SLP284 T01060000 50008 =
2017-10-17 09:54 METAR KPHL 171354Z 36009KT 10SM CLR 09/01 A3037 RMK AO2 SLP285 T00940006 =
2017-10-17 08:54 METAR KPHL 171254Z 36007KT 10SM CLR 08/01 A3037 RMK AO2 SLP284 T00780006 =
2017-10-17 07:54 METAR KPHL 171154Z 35008KT 10SM CLR 06/01 A3035 RMK AO2 SLP277 T00610006 10083
                 20056 51019 =
2017-10-17 06:54 METAR KPHL 171054Z 35007KT 10SM CLR 06/00 A3033 RMK AO2 SLP270 T00610000 =
2017-10-17 05:54 METAR KPHL 170954Z 34006KT 10SM CLR 06/01 A3032 RMK AO2 SLP266 T00560006 =
2017-10-17 04:54 METAR KPHL 170854Z 35005KT 10SM CLR 06/00 A3029 RMK AO2 SLP257 T00560000 53006 =
2017-10-17 03:54 METAR KPHL 170754Z 33008KT 10SM CLR 07/01 A3028 RMK AO2 SLP253 T00670006 =

Support USWX by starting your Amazon purchase here.